Time;durP1;ratioP1;P1;durP2;ratioP2;P2;SDS_P1;SDS_P2;PMS_P1;PMS_P2;Temp;Humidity;BMP_temperature;BMP_pressure;BME280_temperature;BME280_humidity;BME280_pressure;Samples;Min_cycle;Max_cycle;Signal;HPM_P1;HPM_P2
2022/11/10 00:01:26;;;;;;;4.97;2.58;;;;;;;10.64;100.00;98939.19;4135863;28;20208;-47
2022/11/10 00:03:28;;;;;;;2.60;1.95;;;;;;;10.63;100.00;98943.03;4138582;28;20718;-47
2022/11/10 00:05:30;;;;;;;2.63;2.40;;;;;;;10.63;100.00;98948.50;4136030;28;20244;-47
2022/11/10 00:07:32;;;;;;;7.72;3.58;;;;;;;10.52;100.00;98941.97;4138592;28;20342;-47
2022/11/10 00:09:34;;;;;;;1.42;1.33;;;;;;;10.54;100.00;98949.94;4134205;28;20771;-47
2022/11/10 00:11:35;;;;;;;2.97;2.25;;;;;;;10.50;100.00;98943.28;4133048;28;20237;-47
2022/11/10 00:18:19;;;;;;;5.28;2.05;;;;;;;10.57;100.00;98968.59;4135698;28;20241;-47
2022/11/10 00:20:21;;;;;;;2.58;2.28;;;;;;;10.46;100.00;98975.75;4134213;28;20240;-48
2022/11/10 00:22:23;;;;;;;2.10;1.92;;;;;;;10.42;100.00;98984.66;4121395;28;20688;-48
2022/11/10 00:24:27;;;;;;;1.60;1.50;;;;;;;10.42;100.00;98984.66;4131208;28;20216;-47
2022/11/10 00:26:29;;;;;;;2.80;2.60;;;;;;;10.42;100.00;98987.41;4137811;28;20209;-47
2022/11/10 00:28:31;;;;;;;1.90;1.80;;;;;;;10.41;100.00;98989.28;4135979;28;20213;-47
2022/11/10 00:30:32;;;;;;;2.47;1.63;;;;;;;10.49;100.00;98996.34;4130779;28;20216;-48
2022/11/10 00:32:34;;;;;;;2.17;1.98;;;;;;;10.41;100.00;99004.91;4135052;28;20244;-48
2022/11/10 00:34:36;;;;;;;2.25;1.90;;;;;;;10.40;100.00;99008.69;4131695;28;20638;-47
2022/11/10 00:36:38;;;;;;;1.55;1.20;;;;;;;10.41;100.00;99002.97;4123358;28;21547;-47
2022/11/10 00:38:40;;;;;;;2.60;2.17;;;;;;;10.44;100.00;99004.41;4132382;28;20297;-48
2022/11/10 00:40:41;;;;;;;3.17;2.63;;;;;;;10.45;100.00;99011.53;4133973;28;20297;-48
2022/11/10 00:42:43;;;;;;;3.15;2.10;;;;;;;10.41;100.00;99015.84;4134523;28;20718;-47
2022/11/10 00:44:45;;;;;;;1.83;1.73;;;;;;;10.36;100.00;99007.50;4127724;28;20305;-47
2022/11/10 00:46:47;;;;;;;8.77;1.88;;;;;;;10.33;100.00;99014.28;4139121;28;20227;-48
2022/11/10 00:48:48;;;;;;;1.80;1.70;;;;;;;10.26;100.00;99012.72;4150818;28;20296;-49
2022/11/10 00:50:50;;;;;;;1.70;1.60;;;;;;;10.26;100.00;99024.50;4132299;28;20249;-47
2022/11/10 00:52:52;;;;;;;3.38;2.05;;;;;;;10.26;100.00;99023.66;4135184;28;20252;-48
2022/11/10 00:54:54;;;;;;;3.50;1.95;;;;;;;10.23;100.00;99021.41;4149786;28;20220;-47
2022/11/10 00:56:56;;;;;;;3.33;2.35;;;;;;;10.23;100.00;99024.13;4134329;28;20212;-48
2022/11/10 00:58:57;;;;;;;1.67;1.50;;;;;;;10.17;100.00;99019.59;4149122;28;20200;-47
2022/11/10 01:01:01;;;;;;;2.70;1.95;;;;;;;10.18;100.00;99032.19;4146381;28;20622;-47
2022/11/10 01:03:03;;;;;;;6.07;2.05;;;;;;;10.12;100.00;99027.66;4135727;28;20894;-48
2022/11/10 01:05:05;;;;;;;4.95;2.58;;;;;;;10.15;100.00;99036.22;4137379;28;20337;-47
2022/11/10 01:07:06;;;;;;;2.88;2.28;;;;;;;10.16;100.00;99039.81;4139072;28;20304;-47
2022/11/10 01:09:08;;;;;;;2.95;2.50;;;;;;;10.15;100.00;99043.63;4138573;28;20209;-47
2022/11/10 01:11:22;;;;;;;4.53;2.33;;;;;;;10.14;100.00;99050.16;4153947;28;20220;-48
2022/11/10 01:13:24;;;;;;;2.70;2.50;;;;;;;10.12;100.00;99052.28;4150563;28;20737;-46
2022/11/10 01:15:26;;;;;;;2.03;1.92;;;;;;;10.21;100.00;99053.63;4136211;28;20205;-47
2022/11/10 01:17:29;;;;;;;3.63;2.08;;;;;;;10.17;100.00;99057.88;4151981;28;20709;-48
2022/11/10 01:19:30;;;;;;;4.07;3.05;;;;;;;10.19;100.00;99062.06;4141409;28;20205;-48
2022/11/10 01:21:32;;;;;;;8.98;2.45;;;;;;;10.18;100.00;99065.03;4137790;28;20643;-47
2022/11/10 01:23:36;;;;;;;2.25;2.13;;;;;;;10.08;100.00;99064.78;4137329;28;20320;-48
2022/11/10 01:25:38;;;;;;;4.50;3.40;;;;;;;10.21;100.00;99076.31;4139588;28;20488;-47
2022/11/10 01:27:40;;;;;;;3.38;2.63;;;;;;;10.14;100.00;99074.78;4137753;28;20208;-49
2022/11/10 01:29:41;;;;;;;2.67;2.47;;;;;;;10.19;100.00;99077.63;4154219;28;20208;-46
2022/11/10 01:31:43;;;;;;;4.15;2.50;;;;;;;10.20;100.00;99076.56;4142735;28;20793;-48
2022/11/10 01:33:45;;;;;;;3.05;2.75;;;;;;;10.22;100.00;99088.13;4140049;28;20304;-47
2022/11/10 01:35:47;;;;;;;3.30;2.30;;;;;;;10.17;100.00;99087.97;4152935;28;20808;-47
2022/11/10 01:37:51;;;;;;;3.50;3.00;;;;;;;10.22;100.00;99085.38;4136729;28;20209;-48
2022/11/10 01:39:53;;;;;;;1.90;1.80;;;;;;;10.22;100.00;99088.13;4153232;28;20205;-47
2022/11/10 01:41:54;;;;;;;3.28;2.55;;;;;;;10.23;100.00;99095.25;4150159;28;20260;-48
2022/11/10 01:44:15;;;;;;;3.22;2.92;;;;;;;10.28;100.00;99095.38;4150733;28;20320;-47
2022/11/10 01:46:17;;;;;;;2.33;2.20;;;;;;;10.21;100.00;99100.13;4132298;28;20202;-47
2022/11/10 01:48:50;;;;;;;3.38;2.50;;;;;;;10.28;100.00;99100.84;4135266;28;20240;-49
2022/11/10 01:50:52;;;;;;;8.05;2.38;;;;;;;10.25;100.00;99098.56;4139132;28;20312;-48
2022/11/10 01:52:57;;;;;;;2.72;2.47;;;;;;;10.27;100.00;99099.19;4124728;28;20751;-47
2022/11/10 01:54:58;;;;;;;3.25;3.05;;;;;;;10.26;100.00;99098.34;4136751;28;20244;-57
2022/11/10 01:57:04;;;;;;;2.67;2.40;;;;;;;10.34;100.00;99097.19;4137374;28;20228;-47
2022/11/10 01:59:09;;;;;;;5.22;2.63;;;;;;;10.35;100.00;99098.84;4135240;28;20211;-48
2022/11/10 02:01:11;;;;;;;3.45;2.85;;;;;;;10.30;100.00;99098.72;4139211;28;20735;-47
2022/11/10 02:03:14;;;;;;;3.25;2.83;;;;;;;10.27;100.00;99100.00;4135170;28;20229;-47
2022/11/10 02:05:16;;;;;;;3.42;3.10;;;;;;;10.35;100.00;99104.31;4136365;28;20206;-47
2022/11/10 02:07:18;;;;;;;2.38;2.28;;;;;;;10.30;100.00;99101.44;4136988;28;20206;-48
2022/11/10 02:09:20;;;;;;;1.95;1.85;;;;;;;10.37;100.00;99104.91;4115952;28;20230;-47
2022/11/10 02:11:22;;;;;;;4.03;2.58;;;;;;;10.41;100.00;99103.38;4124015;28;20268;-47
2022/11/10 02:13:24;;;;;;;4.40;3.10;;;;;;;10.45;100.00;99110.03;4140548;28;20321;-48
2022/11/10 02:15:26;;;;;;;3.30;3.03;;;;;;;10.40;100.00;99107.16;4129188;28;20210;-48
2022/11/10 02:17:28;;;;;;;2.88;2.42;;;;;;;10.39;100.00;99105.50;4133020;28;20260;-48
2022/11/10 02:19:29;;;;;;;4.43;2.47;;;;;;;10.30;100.00;99106.91;4133177;28;20213;-47
2022/11/10 02:21:31;;;;;;;3.40;3.08;;;;;;;10.43;100.00;99106.72;4134697;28;20252;-46
2022/11/10 02:23:35;;;;;;;3.47;3.17;;;;;;;10.40;100.00;99112.63;4141210;28;20256;-48
2022/11/10 02:25:37;;;;;;;4.63;3.42;;;;;;;10.30;100.00;99101.44;4138442;28;20360;-47
2022/11/10 02:27:39;;;;;;;4.53;4.13;;;;;;;10.35;100.00;99116.06;4141010;28;20204;-48
2022/11/10 02:29:41;;;;;;;3.90;3.60;;;;;;;10.35;100.00;99109.78;4138409;28;20672;-47
2022/11/10 02:31:42;;;;;;;3.67;3.38;;;;;;;10.17;100.00;99120.78;4141370;28;20317;-47
2022/11/10 02:33:44;;;;;;;3.72;2.53;;;;;;;10.15;100.00;99123.75;4141040;28;20206;-48
2022/11/10 02:35:46;;;;;;;3.58;3.25;;;;;;;10.00;100.00;99125.19;4136174;28;20240;-47
2022/11/10 02:37:48;;;;;;;3.28;2.97;;;;;;;10.00;100.00;99119.72;4134254;28;20297;-48
2022/11/10 02:39:49;;;;;;;5.60;3.63;;;;;;;9.99;100.00;99116.19;4141011;28;20205;-48
2022/11/10 02:41:51;;;;;;;7.15;3.55;;;;;;;10.04;100.00;99120.97;4139295;28;20228;-48
2022/11/10 02:43:53;;;;;;;14.35;4.28;;;;;;;10.05;100.00;99108.97;4139825;28;20557;-47
2022/11/10 02:45:55;;;;;;;5.18;3.17;;;;;;;10.08;100.00;99111.25;4137498;28;20229;-47
2022/11/10 02:47:57;;;;;;;9.77;4.45;;;;;;;10.04;100.00;99118.25;4139603;28;20240;-47
2022/11/10 02:49:58;;;;;;;7.43;4.38;;;;;;;10.14;100.00;99118.53;4139811;28;20198;-47
2022/11/10 02:52:00;;;;;;;3.13;2.83;;;;;;;10.13;100.00;99111.38;4137778;28;20673;-47
2022/11/10 02:54:02;;;;;;;7.03;3.05;;;;;;;10.12;100.00;99118.75;4138391;28;20209;-47
2022/11/10 02:56:04;;;;;;;7.63;4.47;;;;;;;10.05;100.00;99125.38;4140260;28;20665;-47
2022/11/10 02:58:06;;;;;;;5.72;3.50;;;;;;;10.12;100.00;99128.84;4141954;28;20293;-47
2022/11/10 03:00:11;;;;;;;6.65;3.63;;;;;;;10.16;100.00;99132.78;4134812;28;20210;-48
2022/11/10 03:02:13;;;;;;;4.25;3.85;;;;;;;10.08;100.00;99130.41;4121288;28;20320;-47
2022/11/10 03:04:14;;;;;;;4.05;3.65;;;;;;;10.02;100.00;99131.28;4136701;28;20651;-49
2022/11/10 03:06:16;;;;;;;3.60;3.30;;;;;;;9.98;100.00;99138.28;4136632;28;20272;-48
2022/11/10 03:08:18;;;;;;;4.30;3.40;;;;;;;10.05;100.00;99128.09;4118160;28;20580;-49
2022/11/10 03:10:23;;;;;;;4.22;3.63;;;;;;;10.10;100.00;99129.09;4138331;28;20296;-48
2022/11/10 03:12:24;;;;;;;5.35;3.78;;;;;;;10.05;100.00;99126.22;4137341;28;20709;-47
2022/11/10 03:14:26;;;;;;;4.68;4.18;;;;;;;9.93;100.00;99125.28;4138650;28;20229;-47
2022/11/10 03:16:28;;;;;;;4.50;4.10;;;;;;;9.92;100.00;99120.91;4141090;28;20731;-47
2022/11/10 03:18:30;;;;;;;5.28;3.40;;;;;;;9.91;100.00;99121.13;4136938;28;20289;-47
2022/11/10 03:20:32;;;;;;;6.95;3.58;;;;;;;9.99;100.00;99131.72;4135369;28;20799;-48
2022/11/10 03:22:34;;;;;;;4.85;4.20;;;;;;;10.03;100.00;99132.94;4132601;28;20230;-48
2022/11/10 03:24:35;;;;;;;6.63;3.92;;;;;;;10.00;100.00;99141.59;4150322;28;20224;-46
2022/11/10 03:26:37;;;;;;;5.22;4.72;;;;;;;10.01;100.00;99132.34;4135179;28;20301;-47
2022/11/10 03:28:39;;;;;;;6.03;5.05;;;;;;;10.00;100.00;99144.34;4134508;28;20289;-47
2022/11/10 03:30:41;;;;;;;5.57;3.58;;;;;;;10.05;100.00;99148.09;4138560;28;20252;-47
2022/11/10 03:32:43;;;;;;;4.35;4.00;;;;;;;9.96;100.00;99151.34;4138842;28;20355;-48
2022/11/10 03:34:45;;;;;;;3.58;3.28;;;;;;;9.94;100.00;99148.84;4147837;28;20289;-48
2022/11/10 03:36:46;;;;;;;5.38;4.53;;;;;;;9.92;100.00;99152.84;4135726;28;20213;-47
2022/11/10 03:38:48;;;;;;;10.43;5.10;;;;;;;10.03;100.00;99152.09;4136026;28;20248;-49
2022/11/10 03:40:50;;;;;;;5.10;3.80;;;;;;;9.97;100.00;99161.22;4138127;28;20679;-47
2022/11/10 03:43:11;;;;;;;3.97;3.63;;;;;;;9.92;100.00;99169.25;4139712;28;20335;-47
2022/11/10 03:45:14;;;;;;;4.72;4.32;;;;;;;10.04;100.00;99175.66;4135307;28;20958;-48
2022/11/10 03:47:16;;;;;;;4.15;3.75;;;;;;;9.95;100.00;99185.22;4146076;28;20757;-47
2022/11/10 03:49:18;;;;;;;4.68;4.20;;;;;;;9.98;100.00;99187.47;4136546;28;20269;-47
2022/11/10 03:51:20;;;;;;;4.55;3.53;;;;;;;10.03;100.00;99188.47;4137043;28;21187;-49
2022/11/10 03:53:22;;;;;;;4.43;4.00;;;;;;;10.05;100.00;99193.72;4148865;28;20249;-47
2022/11/10 03:55:24;;;;;;;5.10;4.43;;;;;;;10.06;100.00;99195.41;4148934;28;20575;-48
2022/11/10 03:57:26;;;;;;;4.78;4.30;;;;;;;10.00;100.00;99193.53;4150527;28;20649;-47
2022/11/10 03:59:28;;;;;;;6.65;4.10;;;;;;;10.07;100.00;99202.56;4140933;28;20213;-48
2022/11/10 04:01:30;;;;;;;14.15;3.25;;;;;;;10.02;100.00;99197.72;4121397;28;20673;-47
2022/11/10 04:03:32;;;;;;;5.00;4.18;;;;;;;10.01;100.00;99211.66;4133489;28;20317;-47
2022/11/10 04:10:18;;;;;;;9.15;3.83;;;;;;;9.92;100.00;99202.06;4133982;28;20552;-47
2022/11/10 04:17:01;;;;;;;8.45;4.85;;;;;;;9.89;100.00;99218.94;4134608;28;20204;-48
2022/11/10 04:19:03;;;;;;;6.32;4.30;;;;;;;9.84;100.00;99213.31;4150463;28;20670;-48
2022/11/10 04:21:05;;;;;;;7.00;4.40;;;;;;;9.84;100.00;99218.78;4150625;28;20683;-47
2022/11/10 04:25:27;;;;;;;8.98;4.47;;;;;;;9.89;100.00;99224.41;4136503;28;20209;-47
2022/11/10 04:27:29;;;;;;;4.80;4.32;;;;;;;9.84;100.00;99229.72;4135112;28;20759;-48
2022/11/10 04:29:30;;;;;;;9.13;5.43;;;;;;;9.84;100.00;99226.97;4139912;28;20586;-47
2022/11/10 04:31:34;;;;;;;5.75;5.25;;;;;;;9.92;100.00;99229.41;4137922;28;20301;-47
2022/11/10 04:33:36;;;;;;;5.88;5.28;;;;;;;9.84;100.00;99221.50;4139690;28;20267;-47
2022/11/10 04:35:38;;;;;;;5.88;5.18;;;;;;;9.65;100.00;99225.31;4135263;28;20209;-48
2022/11/10 04:37:40;;;;;;;6.75;5.15;;;;;;;9.64;100.00;99232.69;4134792;28;20324;-47
2022/11/10 04:39:42;;;;;;;7.53;5.32;;;;;;;9.72;100.00;99223.31;4140075;28;20205;-47
2022/11/10 04:41:43;;;;;;;5.85;4.75;;;;;;;9.60;100.00;99230.59;4135974;28;20958;-48
2022/11/10 04:43:45;;;;;;;4.53;4.07;;;;;;;9.50;100.00;99233.03;4147001;28;20224;-47
2022/11/10 04:45:47;;;;;;;11.55;5.28;;;;;;;9.52;100.00;99248.16;4149652;28;20295;-47
2022/11/10 04:47:49;;;;;;;4.80;4.40;;;;;;;9.60;100.00;99258.78;4129005;28;20639;-48
2022/11/10 04:49:51;;;;;;;7.38;4.78;;;;;;;9.71;100.00;99266.25;4115070;28;20202;-48
2022/11/10 04:51:52;;;;;;;6.28;3.97;;;;;;;9.60;100.00;99260.66;4152294;28;20220;-48
2022/11/10 04:53:54;;;;;;;5.28;4.60;;;;;;;9.67;100.00;99266.94;4136883;28;20272;-47
2022/11/10 04:55:56;;;;;;;7.15;4.45;;;;;;;9.70;100.00;99277.38;4147971;28;20339;-47
2022/11/10 04:57:58;;;;;;;5.90;5.18;;;;;;;9.68;100.00;99266.69;4134159;28;20292;-47
2022/11/10 04:59:59;;;;;;;9.40;5.45;;;;;;;9.67;100.00;99264.19;4132371;28;20694;-46
2022/11/10 05:02:01;;;;;;;4.65;4.25;;;;;;;9.63;100.00;99257.50;4134384;28;20699;-48
2022/11/10 05:04:04;;;;;;;7.40;4.43;;;;;;;9.53;100.00;99254.44;4151775;28;20543;-48
2022/11/10 05:06:06;;;;;;;4.78;4.38;;;;;;;9.52;100.00;99250.88;4146152;28;20213;-47
2022/11/10 05:08:08;;;;;;;12.85;6.03;;;;;;;9.50;100.00;99263.09;4139381;28;20217;-49
2022/11/10 05:10:10;;;;;;;6.10;4.90;;;;;;;9.53;100.00;99268.09;4137583;28;20653;-48
2022/11/10 05:12:11;;;;;;;5.18;4.45;;;;;;;9.53;100.00;99279.00;4128676;28;20236;-47
2022/11/10 05:14:16;;;;;;;5.15;4.65;;;;;;;9.53;100.00;99284.47;4149250;28;20780;-47
2022/11/10 05:16:18;;;;;;;5.70;5.20;;;;;;;9.48;100.00;99281.59;4133438;28;20284;-49
2022/11/10 05:18:20;;;;;;;5.13;4.70;;;;;;;9.64;100.00;99287.34;4134305;28;20210;-47
2022/11/10 05:20:23;;;;;;;5.13;3.35;;;;;;;9.52;100.00;99285.53;4134594;28;20301;-47
2022/11/10 05:22:25;;;;;;;5.15;4.10;;;;;;;9.60;100.00;99285.25;4132315;28;20320;-48
2022/11/10 05:24:27;;;;;;;5.47;4.70;;;;;;;9.72;100.00;99281.56;4146010;28;20228;-47
2022/11/10 05:26:29;;;;;;;6.57;5.40;;;;;;;9.58;100.00;99287.38;4125590;28;20206;-47
2022/11/10 05:28:30;;;;;;;5.30;4.32;;;;;;;9.63;100.00;99284.81;4132636;28;20210;-47
2022/11/10 05:30:32;;;;;;;4.78;4.38;;;;;;;9.72;100.00;99283.44;4130272;28;20760;-47
2022/11/10 05:32:35;;;;;;;4.55;4.03;;;;;;;9.65;100.00;99293.63;4123608;28;20321;-47
2022/11/10 05:34:37;;;;;;;4.80;4.45;;;;;;;9.57;100.00;99296.66;4127029;28;20505;-47
2022/11/10 05:36:38;;;;;;;3.90;3.55;;;;;;;9.59;100.00;99302.72;4134242;28;20237;-47
2022/11/10 05:38:40;;;;;;;5.45;4.82;;;;;;;9.65;100.00;99312.75;4132170;28;20205;-47
2022/11/10 05:40:44;;;;;;;7.82;4.32;;;;;;;9.51;100.00;99319.41;4121160;28;20221;-48
2022/11/10 05:42:47;;;;;;;4.45;3.70;;;;;;;9.72;100.00;99310.78;4134773;28;20233;-48
2022/11/10 05:44:49;;;;;;;5.85;3.92;;;;;;;9.61;100.00;99311.53;4130761;28;20245;-48
2022/11/10 05:46:51;;;;;;;5.30;4.15;;;;;;;9.62;100.00;99311.28;4131790;28;20235;-49
2022/11/10 05:48:52;;;;;;;6.55;4.22;;;;;;;9.72;100.00;99321.72;4140456;28;20211;-48
2022/11/10 05:50:54;;;;;;;3.78;2.65;;;;;;;9.66;100.00;99339.00;4152720;28;20296;-47
2022/11/10 05:52:56;;;;;;;6.20;4.80;;;;;;;9.66;100.00;99342.59;4136108;28;20248;-47
2022/11/10 05:55:07;;;;;;;4.15;3.50;;;;;;;9.73;100.00;99343.38;4153349;28;20667;-46
2022/11/10 05:57:09;;;;;;;4.05;3.10;;;;;;;9.64;100.00;99341.13;4143707;28;20243;-47
2022/11/10 05:59:23;;;;;;;4.57;3.72;;;;;;;9.71;100.00;99337.28;4153048;28;20270;-48
2022/11/10 06:01:41;;;;;;;3.65;3.35;;;;;;;9.57;100.00;99346.69;4140923;28;20213;-46
2022/11/10 06:03:52;;;;;;;4.55;3.75;;;;;;;9.65;100.00;99348.28;4136369;28;20209;-48
2022/11/10 06:06:07;;;;;;;18.75;4.00;;;;;;;9.75;100.00;99343.97;4141765;28;20208;-48
2022/11/10 06:08:09;;;;;;;6.68;3.70;;;;;;;9.63;100.00;99364.06;4152005;28;20198;-48
2022/11/10 06:10:18;;;;;;;5.80;3.45;;;;;;;9.64;100.00;99379.41;4152491;28;20210;-49
2022/11/10 06:12:30;;;;;;;7.05;3.90;;;;;;;9.55;100.00;99380.75;4137903;28;20654;-47
2022/11/10 06:14:53;;;;;;;3.88;3.42;;;;;;;9.62;100.00;99393.28;4142273;28;20194;-48
2022/11/10 06:17:04;;;;;;;4.65;3.42;;;;;;;9.62;100.00;99376.88;4141920;28;20210;-48
2022/11/10 06:19:13;;;;;;;3.83;3.33;;;;;;;9.50;100.00;99386.03;4137273;28;20608;-47
2022/11/10 06:21:15;;;;;;;3.35;3.05;;;;;;;9.57;100.00;99389.53;4133304;28;20370;-48
2022/11/10 06:23:17;;;;;;;4.90;4.00;;;;;;;9.50;100.00;99394.22;4131793;28;20316;-47
2022/11/10 06:25:19;;;;;;;4.88;3.80;;;;;;;9.54;100.00;99398.19;4119585;28;20292;-47
2022/11/10 06:27:21;;;;;;;4.30;3.95;;;;;;;9.39;100.00;99403.13;4120117;28;20752;-49
2022/11/10 06:29:22;;;;;;;4.32;3.92;;;;;;;9.47;100.00;99411.03;4136227;28;20649;-47
2022/11/10 06:31:27;;;;;;;4.43;4.10;;;;;;;9.43;100.00;99416.09;4138857;28;20667;-47
2022/11/10 06:33:35;;;;;;;7.85;3.70;;;;;;;9.49;100.00;99419.88;4137200;28;20231;-47
2022/11/10 06:35:47;;;;;;;4.30;3.88;;;;;;;9.48;100.00;99423.66;4137464;28;20256;-47
2022/11/10 06:38:00;;;;;;;12.02;4.10;;;;;;;9.53;100.00;99437.47;4137933;28;20292;-48
2022/11/10 06:40:02;;;;;;;4.82;3.47;;;;;;;9.52;100.00;99449.47;4149737;28;20205;-48
2022/11/10 06:42:04;;;;;;;9.95;3.97;;;;;;;9.60;100.00;99449.19;4126525;28;20229;-48
2022/11/10 06:44:06;;;;;;;3.92;3.63;;;;;;;9.59;100.00;99450.25;4137115;28;20269;-48
2022/11/10 06:46:08;;;;;;;3.83;3.08;;;;;;;9.59;100.00;99458.47;4123422;28;20210;-47
2022/11/10 06:48:12;;;;;;;4.43;4.05;;;;;;;9.66;100.00;99448.31;4149362;28;20229;-47
2022/11/10 06:50:14;;;;;;;4.38;3.97;;;;;;;9.66;100.00;99451.91;4129304;28;20214;-47
2022/11/10 06:52:16;;;;;;;9.45;3.97;;;;;;;9.63;100.00;99448.78;4135080;28;20311;-47
2022/11/10 06:54:18;;;;;;;8.18;4.80;;;;;;;9.59;100.00;99456.56;4137211;28;20224;-48
2022/11/10 06:56:20;;;;;;;6.25;4.60;;;;;;;9.51;100.00;99456.84;4120046;28;20206;-47
2022/11/10 06:58:22;;;;;;;11.50;3.83;;;;;;;9.56;100.00;99458.91;4116740;28;20210;-48
2022/11/10 07:00:25;;;;;;;5.95;4.55;;;;;;;9.56;100.00;99465.19;4129475;28;20205;-47
2022/11/10 07:02:27;;;;;;;9.30;5.35;;;;;;;9.53;100.00;99464.81;4132443;28;20838;-48
2022/11/10 07:04:28;;;;;;;4.63;3.60;;;;;;;9.54;100.00;99478.25;4116344;28;20332;-48
2022/11/10 07:06:30;;;;;;;5.97;4.30;;;;;;;9.66;100.00;99481.97;4128275;28;20213;-47
2022/11/10 07:08:32;;;;;;;8.32;4.70;;;;;;;9.52;100.00;99485.84;4132998;28;20217;-48
2022/11/10 07:10:34;;;;;;;6.15;3.90;;;;;;;9.53;100.00;99479.31;4131908;28;20209;-47
2022/11/10 07:13:00;;;;;;;7.10;4.18;;;;;;;9.53;100.00;99481.19;4138483;28;20229;-50
2022/11/10 07:15:02;;;;;;;5.70;4.35;;;;;;;9.57;100.00;99487.91;4132902;28;20225;-49
2022/11/10 07:17:04;;;;;;;4.63;4.22;;;;;;;9.51;100.00;99496.97;4132574;28;20317;-49
2022/11/10 07:19:06;;;;;;;6.30;4.45;;;;;;;9.53;100.00;99492.97;4153207;28;20244;-47
2022/11/10 07:21:17;;;;;;;7.07;3.88;;;;;;;9.47;100.00;99501.19;4150212;28;20290;-47
2022/11/10 07:23:40;;;;;;;3.70;3.40;;;;;;;9.49;100.00;99501.84;4138413;28;20967;-47
2022/11/10 07:25:51;;;;;;;5.78;3.95;;;;;;;9.49;100.00;99502.66;4138816;28;20792;-48
2022/11/10 07:27:59;;;;;;;5.22;4.72;;;;;;;9.55;100.00;99511.88;4139865;28;21117;-47
2022/11/10 07:30:00;;;;;;;6.40;4.25;;;;;;;9.57;100.00;99515.22;4126253;28;20379;-47
2022/11/10 07:32:02;;;;;;;4.22;3.83;;;;;;;9.58;100.00;99508.69;4129712;28;20389;-47
2022/11/10 07:34:04;;;;;;;6.30;5.07;;;;;;;9.62;100.00;99512.69;4111234;28;20214;-46
2022/11/10 07:36:09;;;;;;;6.72;4.68;;;;;;;9.69;100.00;99518.94;4131546;28;20208;-46
2022/11/10 07:38:13;;;;;;;5.80;3.00;;;;;;;9.62;100.00;99523.63;4127637;28;20213;-49
2022/11/10 07:40:15;;;;;;;4.30;3.90;;;;;;;9.64;100.00;99526.97;4137350;28;20205;-46
2022/11/10 07:42:17;;;;;;;6.05;3.92;;;;;;;9.63;100.00;99519.81;4125483;28;20738;-47
2022/11/10 07:44:18;;;;;;;7.10;3.88;;;;;;;9.58;100.00;99525.09;4134335;28;20217;-47
2022/11/10 07:46:20;;;;;;;4.28;3.88;;;;;;;9.73;100.00;99525.63;4132997;28;20296;-47
2022/11/10 07:48:22;;;;;;;5.28;3.78;;;;;;;9.81;100.00;99533.59;4118616;28;20237;-46
2022/11/10 07:50:24;;;;;;;4.05;3.65;;;;;;;9.88;100.00;99539.84;4134137;28;20249;-46
2022/11/10 07:52:25;;;;;;;8.95;4.50;;;;;;;9.88;100.00;99534.38;4129755;28;20253;-49
2022/11/10 07:54:27;;;;;;;5.65;4.43;;;;;;;10.01;100.00;99539.75;4134364;28;20308;-45
2022/11/10 07:56:41;;;;;;;6.30;5.28;;;;;;;10.10;100.00;99542.03;4122636;28;20217;-46
2022/11/10 07:58:59;;;;;;;6.15;4.22;;;;;;;10.14;100.00;99543.25;4131283;28;20212;-46
2022/11/10 08:01:12;;;;;;;4.55;4.18;;;;;;;10.26;100.00;99544.22;4134442;28;20220;-46
2022/11/10 08:03:21;;;;;;;4.88;3.75;;;;;;;10.39;100.00;99548.72;4149203;28;20229;-45
2022/11/10 08:05:25;;;;;;;4.38;3.33;;;;;;;10.37;100.00;99561.81;4137744;28;20233;-47
2022/11/10 08:07:27;;;;;;;4.20;3.80;;;;;;;10.35;100.00;99559.28;4140573;28;20232;-46
2022/11/10 08:09:34;;;;;;;3.45;3.00;;;;;;;10.44;100.00;99568.06;4147700;28;20243;-46
2022/11/10 08:11:47;;;;;;;4.57;3.53;;;;;;;10.51;100.00;99568.84;4133623;28;20209;-46
2022/11/10 08:13:58;;;;;;;3.90;3.50;;;;;;;10.46;100.00;99568.66;4135843;28;20212;-45
2022/11/10 08:16:24;;;;;;;5.13;3.55;;;;;;;10.54;100.00;99574.69;4136690;28;20198;-45
2022/11/10 08:18:49;;;;;;;5.40;2.92;;;;;;;10.62;100.00;99582.63;4137245;28;20206;-45
2022/11/10 08:21:08;;;;;;;3.55;3.25;;;;;;;10.66;100.00;99586.59;4137017;28;20228;-45
2022/11/10 08:23:11;;;;;;;6.22;3.40;;;;;;;10.54;100.00;99596.59;4135969;28;20818;-45
2022/11/10 08:25:13;;;;;;;5.93;2.72;;;;;;;10.50;100.00;99595.38;4136024;28;20261;-45
2022/11/10 08:27:14;;;;;;;3.97;2.95;;;;;;;10.54;100.00;99603.97;4139446;28;20213;-46
2022/11/10 08:29:29;;;;;;;4.10;2.60;;;;;;;10.59;100.00;99598.66;4131809;28;20225;-45
2022/11/10 08:31:43;;;;;;;3.33;2.85;;;;;;;10.70;100.00;99606.16;4139712;28;20576;-45
2022/11/10 08:33:45;;;;;;;3.45;2.35;;;;;;;10.73;100.00;99601.06;4138123;28;20209;-45
2022/11/10 08:35:57;;;;;;;5.93;3.03;;;;;;;10.63;100.00;99610.84;4134278;28;20201;-46
2022/11/10 08:38:17;;;;;;;6.35;2.53;;;;;;;10.57;100.00;99609.84;4127351;28;20247;-46
2022/11/10 08:40:20;;;;;;;6.18;3.15;;;;;;;10.57;100.00;99609.00;4140220;28;20588;-46
2022/11/10 08:42:46;;;;;;;3.08;2.63;;;;;;;10.56;100.00;99610.88;4137492;28;20233;-45
2022/11/10 08:45:05;;;;;;;5.50;2.20;;;;;;;10.60;100.00;99616.75;4126706;28;20235;-45
2022/11/10 08:47:07;;;;;;;3.50;2.58;;;;;;;10.48;100.00;99629.50;4137224;28;20231;-47
2022/11/10 08:49:09;;;;;;;3.38;3.08;;;;;;;10.41;100.00;99625.97;4139358;28;20634;-45
2022/11/10 08:51:11;;;;;;;3.33;2.97;;;;;;;10.54;100.00;99628.63;4136150;28;20248;-45
2022/11/10 08:53:28;;;;;;;4.95;2.78;;;;;;;10.65;100.00;99627.88;4138667;28;20229;-46
2022/11/10 08:57:51;;;;;;;3.63;3.08;;;;;;;10.79;100.00;99633.84;4139623;28;20673;-45
2022/11/10 08:59:53;;;;;;;3.70;3.40;;;;;;;11.05;100.00;99641.00;4139076;28;20208;-45
2022/11/10 09:01:56;;;;;;;3.38;2.95;;;;;;;11.09;100.00;99643.03;4139213;28;20260;-46
2022/11/10 09:03:58;;;;;;;2.40;2.20;;;;;;;11.26;100.00;99652.38;4139143;28;20340;-46
2022/11/10 09:06:00;;;;;;;2.05;1.85;;;;;;;11.49;100.00;99652.53;4138479;28;20237;-46
2022/11/10 09:08:02;;;;;;;4.80;2.17;;;;;;;12.00;100.00;99660.38;4136148;28;20270;-46
2022/11/10 09:10:11;;;;;;;1.83;1.48;;;;;;;12.16;100.00;99665.22;4154078;28;20243;-46
2022/11/10 09:12:13;;;;;;;5.53;2.60;;;;;;;11.91;100.00;99667.25;4134613;28;20322;-46
2022/11/10 09:14:15;;;;;;;2.95;1.88;;;;;;;12.17;100.00;99667.72;4133241;28;20226;-46
2022/11/10 09:16:16;;;;;;;3.13;2.33;;;;;;;12.46;97.73;99675.13;4119205;28;20233;-45
2022/11/10 09:18:35;;;;;;;2.10;1.77;;;;;;;12.42;97.39;99673.91;4138339;28;20209;-46
2022/11/10 09:20:43;;;;;;;6.20;2.65;;;;;;;12.11;98.77;99679.63;4139618;28;20190;-46
2022/11/10 09:22:44;;;;;;;2.90;2.28;;;;;;;12.02;98.62;99680.16;4137752;28;20872;-45
2022/11/10 09:24:48;;;;;;;11.75;3.17;;;;;;;11.98;98.55;99685.28;4136392;28;20213;-46
2022/11/10 09:26:49;;;;;;;3.20;2.13;;;;;;;11.76;99.54;99692.31;4133246;28;20998;-45
2022/11/10 09:28:51;;;;;;;2.65;1.48;;;;;;;11.82;99.84;99680.44;4131343;28;20256;-46
2022/11/10 09:30:53;;;;;;;2.55;1.73;;;;;;;11.73;99.13;99687.28;4135269;28;20193;-46
2022/11/10 09:32:56;;;;;;;3.03;2.13;;;;;;;11.58;100.00;99697.78;4135394;28;20318;-45
2022/11/10 09:34:58;;;;;;;4.32;1.75;;;;;;;11.63;100.00;99686.16;4136058;28;20233;-46
2022/11/10 09:37:00;;;;;;;1.90;1.70;;;;;;;12.12;100.00;99686.78;4135644;28;20305;-46
2022/11/10 09:39:02;;;;;;;3.40;2.53;;;;;;;11.91;98.44;99684.53;4134102;28;21637;-46
2022/11/10 09:41:07;;;;;;;8.07;3.72;;;;;;;11.44;100.00;99698.97;4138057;28;20213;-46
2022/11/10 09:43:27;;;;;;;2.10;1.77;;;;;;;11.67;98.58;99687.34;4136755;28;20233;-46
2022/11/10 09:45:42;;;;;;;2.88;2.38;;;;;;;11.23;99.32;99702.13;4133669;28;20324;-45
2022/11/10 09:47:57;;;;;;;2.42;2.17;;;;;;;11.18;100.00;99698.41;4144431;28;20240;-45
2022/11/10 09:50:00;;;;;;;8.70;2.65;;;;;;;11.04;100.00;99697.66;4133226;28;20500;-45
2022/11/10 09:52:03;;;;;;;3.40;2.45;;;;;;;11.10;100.00;99699.50;4130223;28;20730;-45
2022/11/10 09:54:05;;;;;;;4.00;2.38;;;;;;;11.42;100.00;99698.34;4124622;28;20253;-45
2022/11/10 09:56:13;;;;;;;2.30;2.08;;;;;;;11.63;99.94;99708.91;4119634;28;20625;-46
2022/11/10 09:58:15;;;;;;;4.57;2.60;;;;;;;11.66;99.38;99715.84;4136809;28;20209;-46
2022/11/10 10:00:17;;;;;;;1.95;1.50;;;;;;;11.52;98.92;99717.03;4137176;28;20240;-45